sensor_id;sensor_type;location;lat;lon;timestamp;temperature;humidity
30250;DHT22;17064;47.974;13.826;2023-09-12T00:04:56;16.90;99.90
30250;DHT22;17064;47.974;13.826;2023-09-12T00:09:57;16.90;99.90
30250;DHT22;17064;47.974;13.826;2023-09-12T00:14:57;16.80;99.90
30250;DHT22;17064;47.974;13.826;2023-09-12T00:19:58;16.80;99.90
30250;DHT22;17064;47.974;13.826;2023-09-12T00:25:01;16.80;99.90
30250;DHT22;17064;47.974;13.826;2023-09-12T00:30:03;16.80;99.90
30250;DHT22;17064;47.974;13.826;2023-09-12T00:35:04;16.80;99.90
30250;DHT22;17064;47.974;13.826;2023-09-12T00:40:05;16.70;99.90
30250;DHT22;17064;47.974;13.826;2023-09-12T00:45:06;16.70;99.90
30250;DHT22;17064;47.974;13.826;2023-09-12T00:50:08;16.70;99.90
30250;DHT22;17064;47.974;13.826;2023-09-12T00:55:09;16.70;99.90
30250;DHT22;17064;47.974;13.826;2023-09-12T01:00:12;16.60;99.90
30250;DHT22;17064;47.974;13.826;2023-09-12T01:05:16;16.60;99.90
30250;DHT22;17064;47.974;13.826;2023-09-12T01:10:17;16.60;99.90
30250;DHT22;17064;47.974;13.826;2023-09-12T01:15:18;16.60;99.90
30250;DHT22;17064;47.974;13.826;2023-09-12T01:20:30;16.60;99.90
30250;DHT22;17064;47.974;13.826;2023-09-12T01:25:39;16.50;99.90
30250;DHT22;17064;47.974;13.826;2023-09-12T01:30:45;16.50;99.90
30250;DHT22;17064;47.974;13.826;2023-09-12T01:35:49;16.50;99.90
30250;DHT22;17064;47.974;13.826;2023-09-12T01:40:51;16.40;99.90
30250;DHT22;17064;47.974;13.826;2023-09-12T01:45:57;16.40;99.90
30250;DHT22;17064;47.974;13.826;2023-09-12T01:50:58;16.40;99.90
30250;DHT22;17064;47.974;13.826;2023-09-12T01:56:00;16.40;99.90
30250;DHT22;17064;47.974;13.826;2023-09-12T02:01:00;16.30;99.90
30250;DHT22;17064;47.974;13.826;2023-09-12T02:06:01;16.40;99.90
30250;DHT22;17064;47.974;13.826;2023-09-12T02:11:02;16.30;99.90
30250;DHT22;17064;47.974;13.826;2023-09-12T02:16:03;16.30;99.90
30250;DHT22;17064;47.974;13.826;2023-09-12T02:21:03;16.30;99.90
30250;DHT22;17064;47.974;13.826;2023-09-12T02:26:04;16.30;99.90
30250;DHT22;17064;47.974;13.826;2023-09-12T02:31:10;16.30;99.90
30250;DHT22;17064;47.974;13.826;2023-09-12T02:36:12;16.20;99.90
30250;DHT22;17064;47.974;13.826;2023-09-12T02:41:12;16.20;99.90
30250;DHT22;17064;47.974;13.826;2023-09-12T02:46:13;16.20;99.90
30250;DHT22;17064;47.974;13.826;2023-09-12T02:51:14;16.20;99.90
30250;DHT22;17064;47.974;13.826;2023-09-12T02:56:14;16.20;99.90
30250;DHT22;17064;47.974;13.826;2023-09-12T03:01:19;16.20;99.90
30250;DHT22;17064;47.974;13.826;2023-09-12T03:06:20;16.20;99.90
30250;DHT22;17064;47.974;13.826;2023-09-12T03:11:21;16.10;99.90
30250;DHT22;17064;47.974;13.826;2023-09-12T03:16:21;16.10;99.90
30250;DHT22;17064;47.974;13.826;2023-09-12T03:21:24;16.00;99.90
30250;DHT22;17064;47.974;13.826;2023-09-12T03:26:25;16.00;99.90
30250;DHT22;17064;47.974;13.826;2023-09-12T03:31:25;16.00;99.90
30250;DHT22;17064;47.974;13.826;2023-09-12T03:36:26;15.90;99.90
30250;DHT22;17064;47.974;13.826;2023-09-12T03:41:27;15.80;99.90
30250;DHT22;17064;47.974;13.826;2023-09-12T03:46:27;15.80;99.90
30250;DHT22;17064;47.974;13.826;2023-09-12T03:51:28;15.70;99.90
30250;DHT22;17064;47.974;13.826;2023-09-12T03:56:29;15.60;99.90
30250;DHT22;17064;47.974;13.826;2023-09-12T04:01:30;15.60;99.90
30250;DHT22;17064;47.974;13.826;2023-09-12T04:06:31;15.50;99.90
30250;DHT22;17064;47.974;13.826;2023-09-12T04:11:31;15.50;99.90
30250;DHT22;17064;47.974;13.826;2023-09-12T04:16:32;15.50;99.90
30250;DHT22;17064;47.974;13.826;2023-09-12T04:21:34;15.40;99.90
30250;DHT22;17064;47.974;13.826;2023-09-12T04:26:34;15.40;99.90
30250;DHT22;17064;47.974;13.826;2023-09-12T04:31:35;15.40;99.90
30250;DHT22;17064;47.974;13.826;2023-09-12T04:36:36;15.40;99.90
30250;DHT22;17064;47.974;13.826;2023-09-12T04:41:36;15.40;99.90
30250;DHT22;17064;47.974;13.826;2023-09-12T04:46:38;15.30;99.90
30250;DHT22;17064;47.974;13.826;2023-09-12T04:51:38;15.40;99.90
30250;DHT22;17064;47.974;13.826;2023-09-12T04:56:39;15.30;99.90
30250;DHT22;17064;47.974;13.826;2023-09-12T05:01:40;15.40;99.90
30250;DHT22;17064;47.974;13.826;2023-09-12T05:06:40;15.30;99.90
30250;DHT22;17064;47.974;13.826;2023-09-12T05:11:41;15.30;99.90
30250;DHT22;17064;47.974;13.826;2023-09-12T05:16:42;15.30;99.90
30250;DHT22;17064;47.974;13.826;2023-09-12T05:21:43;15.30;99.90
30250;DHT22;17064;47.974;13.826;2023-09-12T05:26:43;15.40;99.90
30250;DHT22;17064;47.974;13.826;2023-09-12T05:31:44;15.40;99.90
30250;DHT22;17064;47.974;13.826;2023-09-12T05:36:45;15.40;99.90
30250;DHT22;17064;47.974;13.826;2023-09-12T05:41:45;15.50;99.90
30250;DHT22;17064;47.974;13.826;2023-09-12T05:46:47;15.60;99.90
30250;DHT22;17064;47.974;13.826;2023-09-12T05:51:48;15.70;99.90
30250;DHT22;17064;47.974;13.826;2023-09-12T05:56:49;15.80;99.90
30250;DHT22;17064;47.974;13.826;2023-09-12T06:01:49;16.00;99.90
30250;DHT22;17064;47.974;13.826;2023-09-12T06:06:50;16.10;99.90
30250;DHT22;17064;47.974;13.826;2023-09-12T06:11:51;16.30;99.90
30250;DHT22;17064;47.974;13.826;2023-09-12T06:16:51;16.40;99.90
30250;DHT22;17064;47.974;13.826;2023-09-12T06:21:52;16.70;99.90
30250;DHT22;17064;47.974;13.826;2023-09-12T06:26:53;16.90;99.90
30250;DHT22;17064;47.974;13.826;2023-09-12T06:31:54;17.10;99.90
30250;DHT22;17064;47.974;13.826;2023-09-12T06:36:56;17.40;99.90
30250;DHT22;17064;47.974;13.826;2023-09-12T06:41:57;17.60;99.90
30250;DHT22;17064;47.974;13.826;2023-09-12T06:46:57;17.80;99.90
30250;DHT22;17064;47.974;13.826;2023-09-12T06:51:58;18.00;99.90
30250;DHT22;17064;47.974;13.826;2023-09-12T06:56:59;18.30;99.90
30250;DHT22;17064;47.974;13.826;2023-09-12T07:01:59;18.50;99.90
30250;DHT22;17064;47.974;13.826;2023-09-12T07:07:00;18.70;99.90
30250;DHT22;17064;47.974;13.826;2023-09-12T07:12:01;19.00;99.90
30250;DHT22;17064;47.974;13.826;2023-09-12T07:17:01;19.30;99.90
30250;DHT22;17064;47.974;13.826;2023-09-12T07:22:03;19.50;99.90
30250;DHT22;17064;47.974;13.826;2023-09-12T07:27:04;19.80;99.90
30250;DHT22;17064;47.974;13.826;2023-09-12T07:32:05;20.00;99.90
30250;DHT22;17064;47.974;13.826;2023-09-12T07:37:05;20.30;99.90
30250;DHT22;17064;47.974;13.826;2023-09-12T07:42:06;20.70;99.90
30250;DHT22;17064;47.974;13.826;2023-09-12T07:47:07;21.10;99.90
30250;DHT22;17064;47.974;13.826;2023-09-12T07:52:09;21.30;99.90
30250;DHT22;17064;47.974;13.826;2023-09-12T07:57:10;21.60;99.90
30250;DHT22;17064;47.974;13.826;2023-09-12T08:02:10;22.00;99.90
30250;DHT22;17064;47.974;13.826;2023-09-12T08:07:13;22.30;99.90
30250;DHT22;17064;47.974;13.826;2023-09-12T08:12:13;22.60;99.90
30250;DHT22;17064;47.974;13.826;2023-09-12T08:17:15;22.70;99.90
30250;DHT22;17064;47.974;13.826;2023-09-12T08:22:16;23.00;99.90
30250;DHT22;17064;47.974;13.826;2023-09-12T08:27:17;23.30;99.90
30250;DHT22;17064;47.974;13.826;2023-09-12T08:32:18;23.60;99.90
30250;DHT22;17064;47.974;13.826;2023-09-12T08:37:18;23.90;99.90
30250;DHT22;17064;47.974;13.826;2023-09-12T08:42:19;24.20;99.90
30250;DHT22;17064;47.974;13.826;2023-09-12T08:47:22;24.40;99.90
30250;DHT22;17064;47.974;13.826;2023-09-12T08:52:24;24.80;99.90
30250;DHT22;17064;47.974;13.826;2023-09-12T08:57:25;25.00;99.90
30250;DHT22;17064;47.974;13.826;2023-09-12T09:02:26;25.20;99.90
30250;DHT22;17064;47.974;13.826;2023-09-12T09:07:28;25.40;99.90
30250;DHT22;17064;47.974;13.826;2023-09-12T09:12:29;25.70;99.90
30250;DHT22;17064;47.974;13.826;2023-09-12T09:17:30;26.00;99.90
30250;DHT22;17064;47.974;13.826;2023-09-12T09:22:31;26.30;99.90
30250;DHT22;17064;47.974;13.826;2023-09-12T09:27:34;26.60;99.90
30250;DHT22;17064;47.974;13.826;2023-09-12T09:32:35;26.60;99.90
30250;DHT22;17064;47.974;13.826;2023-09-12T09:37:36;26.90;99.90
30250;DHT22;17064;47.974;13.826;2023-09-12T09:42:37;26.90;99.90
30250;DHT22;17064;47.974;13.826;2023-09-12T09:47:38;26.80;99.90
30250;DHT22;17064;47.974;13.826;2023-09-12T09:52:39;26.90;99.90
30250;DHT22;17064;47.974;13.826;2023-09-12T09:57:39;27.00;99.90
30250;DHT22;17064;47.974;13.826;2023-09-12T10:02:41;26.90;99.90
30250;DHT22;17064;47.974;13.826;2023-09-12T10:07:45;26.80;99.90
30250;DHT22;17064;47.974;13.826;2023-09-12T10:12:56;26.90;99.90
30250;DHT22;17064;47.974;13.826;2023-09-12T10:18:00;27.10;99.90
30250;DHT22;17064;47.974;13.826;2023-09-12T10:28:04;27.30;99.90
30250;DHT22;17064;47.974;13.826;2023-09-12T10:33:05;27.40;99.30
30250;DHT22;17064;47.974;13.826;2023-09-12T10:38:07;27.50;98.90
30250;DHT22;17064;47.974;13.826;2023-09-12T10:43:09;27.50;98.70
30250;DHT22;17064;47.974;13.826;2023-09-12T10:48:11;27.60;97.40
30250;DHT22;17064;47.974;13.826;2023-09-12T10:53:13;27.50;98.20
30250;DHT22;17064;47.974;13.826;2023-09-12T10:58:14;27.50;95.70
30250;DHT22;17064;47.974;13.826;2023-09-12T11:08:28;27.40;99.30
30250;DHT22;17064;47.974;13.826;2023-09-12T11:13:38;27.60;97.60
30250;DHT22;17064;47.974;13.826;2023-09-12T11:19:12;27.60;96.80
30250;DHT22;17064;47.974;13.826;2023-09-12T11:24:16;27.40;96.70
30250;DHT22;17064;47.974;13.826;2023-09-12T11:29:17;27.40;95.60
30250;DHT22;17064;47.974;13.826;2023-09-12T11:34:18;27.40;95.00
30250;DHT22;17064;47.974;13.826;2023-09-12T11:39:23;27.40;95.50
30250;DHT22;17064;47.974;13.826;2023-09-12T11:44:26;27.40;96.20
30250;DHT22;17064;47.974;13.826;2023-09-12T11:49:27;27.40;95.10
30250;DHT22;17064;47.974;13.826;2023-09-12T11:54:29;27.50;93.30
30250;DHT22;17064;47.974;13.826;2023-09-12T11:59:32;27.50;95.80
30250;DHT22;17064;47.974;13.826;2023-09-12T12:04:33;27.40;93.80
30250;DHT22;17064;47.974;13.826;2023-09-12T12:09:35;27.40;92.30
30250;DHT22;17064;47.974;13.826;2023-09-12T12:14:36;27.40;93.70
30250;DHT22;17064;47.974;13.826;2023-09-12T12:19:38;27.40;93.90
30250;DHT22;17064;47.974;13.826;2023-09-12T12:24:46;27.50;92.00
30250;DHT22;17064;47.974;13.826;2023-09-12T12:29:47;27.50;94.50
30250;DHT22;17064;47.974;13.826;2023-09-12T12:34:48;27.50;95.10
30250;DHT22;17064;47.974;13.826;2023-09-12T12:39:49;27.60;93.70
30250;DHT22;17064;47.974;13.826;2023-09-12T12:44:56;27.60;93.10
30250;DHT22;17064;47.974;13.826;2023-09-12T12:49:57;27.60;93.50
30250;DHT22;17064;47.974;13.826;2023-09-12T12:55:11;27.40;95.30
30250;DHT22;17064;47.974;13.826;2023-09-12T13:00:13;27.20;92.70
30250;DHT22;17064;47.974;13.826;2023-09-12T13:05:28;27.10;93.10
30250;DHT22;17064;47.974;13.826;2023-09-12T13:10:29;27.10;93.80
30250;DHT22;17064;47.974;13.826;2023-09-12T13:15:31;27.10;93.50
30250;DHT22;17064;47.974;13.826;2023-09-12T13:20:31;27.10;94.10
30250;DHT22;17064;47.974;13.826;2023-09-12T13:25:32;27.00;92.10
30250;DHT22;17064;47.974;13.826;2023-09-12T13:30:33;26.90;90.60
30250;DHT22;17064;47.974;13.826;2023-09-12T13:35:33;26.70;91.90
30250;DHT22;17064;47.974;13.826;2023-09-12T13:40:37;26.50;93.20
30250;DHT22;17064;47.974;13.826;2023-09-12T13:45:39;26.30;94.90
30250;DHT22;17064;47.974;13.826;2023-09-12T13:50:39;26.20;94.00
30250;DHT22;17064;47.974;13.826;2023-09-12T13:55:40;26.10;94.70
30250;DHT22;17064;47.974;13.826;2023-09-12T14:00:41;26.20;93.00
30250;DHT22;17064;47.974;13.826;2023-09-12T14:05:41;26.50;92.40
30250;DHT22;17064;47.974;13.826;2023-09-12T14:10:43;26.60;94.20
30250;DHT22;17064;47.974;13.826;2023-09-12T14:15:43;26.80;93.20
30250;DHT22;17064;47.974;13.826;2023-09-12T14:20:46;26.90;93.30
30250;DHT22;17064;47.974;13.826;2023-09-12T14:25:47;26.80;91.80
30250;DHT22;17064;47.974;13.826;2023-09-12T14:30:49;26.70;93.00
30250;DHT22;17064;47.974;13.826;2023-09-12T14:35:51;26.70;94.40
30250;DHT22;17064;47.974;13.826;2023-09-12T14:40:54;26.50;93.70
30250;DHT22;17064;47.974;13.826;2023-09-12T14:45:55;26.50;94.40
30250;DHT22;17064;47.974;13.826;2023-09-12T14:50:57;26.40;94.40
30250;DHT22;17064;47.974;13.826;2023-09-12T14:55:58;26.40;94.20
30250;DHT22;17064;47.974;13.826;2023-09-12T15:00:59;26.30;93.40
30250;DHT22;17064;47.974;13.826;2023-09-12T15:06:00;26.20;93.30
30250;DHT22;17064;47.974;13.826;2023-09-12T15:11:01;26.10;94.20
30250;DHT22;17064;47.974;13.826;2023-09-12T15:16:04;26.00;95.30
30250;DHT22;17064;47.974;13.826;2023-09-12T15:21:05;25.90;95.60
30250;DHT22;17064;47.974;13.826;2023-09-12T15:26:05;25.90;93.70
30250;DHT22;17064;47.974;13.826;2023-09-12T15:31:06;25.90;93.90
30250;DHT22;17064;47.974;13.826;2023-09-12T15:36:07;26.00;94.30
30250;DHT22;17064;47.974;13.826;2023-09-12T15:41:08;25.90;94.80
30250;DHT22;17064;47.974;13.826;2023-09-12T15:46:09;25.90;95.80
30250;DHT22;17064;47.974;13.826;2023-09-12T15:51:10;25.80;95.00
30250;DHT22;17064;47.974;13.826;2023-09-12T15:56:11;25.70;95.40
30250;DHT22;17064;47.974;13.826;2023-09-12T16:01:12;25.50;96.50
30250;DHT22;17064;47.974;13.826;2023-09-12T16:06:13;25.40;96.30
30250;DHT22;17064;47.974;13.826;2023-09-12T16:11:14;25.30;96.80
30250;DHT22;17064;47.974;13.826;2023-09-12T16:16:16;25.20;97.20
30250;DHT22;17064;47.974;13.826;2023-09-12T16:21:17;25.00;97.70
30250;DHT22;17064;47.974;13.826;2023-09-12T16:26:18;24.90;97.70
30250;DHT22;17064;47.974;13.826;2023-09-12T16:31:19;24.80;98.00
30250;DHT22;17064;47.974;13.826;2023-09-12T16:36:19;24.60;98.90
30250;DHT22;17064;47.974;13.826;2023-09-12T16:41:20;24.50;99.40
30250;DHT22;17064;47.974;13.826;2023-09-12T16:46:22;24.30;99.70
30250;DHT22;17064;47.974;13.826;2023-09-12T16:51:23;24.20;99.90
30250;DHT22;17064;47.974;13.826;2023-09-12T16:56:25;24.00;99.90
30250;DHT22;17064;47.974;13.826;2023-09-12T17:01:25;23.80;99.90
30250;DHT22;17064;47.974;13.826;2023-09-12T17:06:26;23.60;99.90
30250;DHT22;17064;47.974;13.826;2023-09-12T17:11:30;23.40;99.90
30250;DHT22;17064;47.974;13.826;2023-09-12T17:16:31;23.20;99.90
30250;DHT22;17064;47.974;13.826;2023-09-12T17:21:33;23.00;99.90
30250;DHT22;17064;47.974;13.826;2023-09-12T17:26:33;22.70;99.90
30250;DHT22;17064;47.974;13.826;2023-09-12T17:31:35;22.40;99.90
30250;DHT22;17064;47.974;13.826;2023-09-12T17:36:36;22.20;99.90
30250;DHT22;17064;47.974;13.826;2023-09-12T17:41:41;22.00;99.90
30250;DHT22;17064;47.974;13.826;2023-09-12T17:46:42;21.90;99.90
30250;DHT22;17064;47.974;13.826;2023-09-12T17:51:43;21.80;99.90
30250;DHT22;17064;47.974;13.826;2023-09-12T17:56:45;21.60;99.90
30250;DHT22;17064;47.974;13.826;2023-09-12T18:01:47;21.50;99.90
30250;DHT22;17064;47.974;13.826;2023-09-12T18:06:48;21.30;99.90
30250;DHT22;17064;47.974;13.826;2023-09-12T18:11:50;21.20;99.90
30250;DHT22;17064;47.974;13.826;2023-09-12T18:16:54;21.00;99.90
30250;DHT22;17064;47.974;13.826;2023-09-12T18:21:55;20.80;99.90
30250;DHT22;17064;47.974;13.826;2023-09-12T18:26:56;20.70;99.90
30250;DHT22;17064;47.974;13.826;2023-09-12T18:31:57;20.60;99.90
30250;DHT22;17064;47.974;13.826;2023-09-12T18:36:59;20.40;99.90
30250;DHT22;17064;47.974;13.826;2023-09-12T18:42:02;20.30;99.90
30250;DHT22;17064;47.974;13.826;2023-09-12T18:47:06;20.20;99.90
30250;DHT22;17064;47.974;13.826;2023-09-12T18:52:10;20.10;99.90
30250;DHT22;17064;47.974;13.826;2023-09-12T18:57:12;20.00;99.90
30250;DHT22;17064;47.974;13.826;2023-09-12T19:02:13;19.90;99.90
30250;DHT22;17064;47.974;13.826;2023-09-12T19:07:15;19.90;99.90
30250;DHT22;17064;47.974;13.826;2023-09-12T19:12:18;19.80;99.90
30250;DHT22;17064;47.974;13.826;2023-09-12T19:17:20;19.70;99.90
30250;DHT22;17064;47.974;13.826;2023-09-12T19:22:21;19.60;99.90
30250;DHT22;17064;47.974;13.826;2023-09-12T19:27:24;19.50;99.90
30250;DHT22;17064;47.974;13.826;2023-09-12T19:32:27;19.40;99.90
30250;DHT22;17064;47.974;13.826;2023-09-12T19:37:29;19.40;99.90
30250;DHT22;17064;47.974;13.826;2023-09-12T19:42:30;19.30;99.90
30250;DHT22;17064;47.974;13.826;2023-09-12T19:47:32;19.20;99.90
30250;DHT22;17064;47.974;13.826;2023-09-12T19:52:35;19.20;99.90
30250;DHT22;17064;47.974;13.826;2023-09-12T19:57:37;19.00;99.90
30250;DHT22;17064;47.974;13.826;2023-09-12T20:02:41;19.00;99.90
30250;DHT22;17064;47.974;13.826;2023-09-12T20:07:47;19.00;99.90
30250;DHT22;17064;47.974;13.826;2023-09-12T20:12:53;18.90;99.90
30250;DHT22;17064;47.974;13.826;2023-09-12T20:18:09;18.80;99.90
30250;DHT22;17064;47.974;13.826;2023-09-12T20:23:10;18.70;99.90
30250;DHT22;17064;47.974;13.826;2023-09-12T20:28:11;18.70;99.90
30250;DHT22;17064;47.974;13.826;2023-09-12T20:33:12;18.60;99.90
30250;DHT22;17064;47.974;13.826;2023-09-12T20:38:13;18.60;99.90
30250;DHT22;17064;47.974;13.826;2023-09-12T20:43:15;18.60;99.90
30250;DHT22;17064;47.974;13.826;2023-09-12T20:48:17;18.60;99.90
30250;DHT22;17064;47.974;13.826;2023-09-12T20:53:18;18.60;99.90
30250;DHT22;17064;47.974;13.826;2023-09-12T20:58:19;18.60;99.90
30250;DHT22;17064;47.974;13.826;2023-09-12T21:03:20;18.60;99.90
30250;DHT22;17064;47.974;13.826;2023-09-12T21:08:21;18.60;99.90
30250;DHT22;17064;47.974;13.826;2023-09-12T21:13:22;18.60;99.90
30250;DHT22;17064;47.974;13.826;2023-09-12T21:18:22;18.60;99.90
30250;DHT22;17064;47.974;13.826;2023-09-12T21:23:23;18.60;99.90
30250;DHT22;17064;47.974;13.826;2023-09-12T21:28:24;18.60;99.90
30250;DHT22;17064;47.974;13.826;2023-09-12T21:33:24;18.60;99.90
30250;DHT22;17064;47.974;13.826;2023-09-12T21:38:25;18.60;99.90
30250;DHT22;17064;47.974;13.826;2023-09-12T21:43:26;18.60;99.90
30250;DHT22;17064;47.974;13.826;2023-09-12T21:48:27;18.60;99.90
30250;DHT22;17064;47.974;13.826;2023-09-12T21:53:27;18.60;99.90
30250;DHT22;17064;47.974;13.826;2023-09-12T21:58:28;18.60;99.90
30250;DHT22;17064;47.974;13.826;2023-09-12T22:03:29;18.60;99.90
30250;DHT22;17064;47.974;13.826;2023-09-12T22:08:30;18.50;99.90
30250;DHT22;17064;47.974;13.826;2023-09-12T22:13:30;18.40;99.90
30250;DHT22;17064;47.974;13.826;2023-09-12T22:18:31;18.40;99.90
30250;DHT22;17064;47.974;13.826;2023-09-12T22:23:32;18.50;99.90
30250;DHT22;17064;47.974;13.826;2023-09-12T22:28:32;18.50;99.90
30250;DHT22;17064;47.974;13.826;2023-09-12T22:33:33;18.40;99.90
30250;DHT22;17064;47.974;13.826;2023-09-12T22:38:34;18.30;99.90
30250;DHT22;17064;47.974;13.826;2023-09-12T22:43:35;18.30;99.90
30250;DHT22;17064;47.974;13.826;2023-09-12T22:48:37;18.30;99.90
30250;DHT22;17064;47.974;13.826;2023-09-12T22:53:38;18.40;99.90
30250;DHT22;17064;47.974;13.826;2023-09-12T22:58:38;18.40;99.90
30250;DHT22;17064;47.974;13.826;2023-09-12T23:03:39;18.50;99.90
30250;DHT22;17064;47.974;13.826;2023-09-12T23:08:40;18.40;99.90
30250;DHT22;17064;47.974;13.826;2023-09-12T23:13:40;18.40;99.90
30250;DHT22;17064;47.974;13.826;2023-09-12T23:18:41;18.40;99.90
30250;DHT22;17064;47.974;13.826;2023-09-12T23:23:42;18.40;99.90
30250;DHT22;17064;47.974;13.826;2023-09-12T23:28:42;18.40;99.90
30250;DHT22;17064;47.974;13.826;2023-09-12T23:33:43;18.40;99.90
30250;DHT22;17064;47.974;13.826;2023-09-12T23:38:44;18.30;99.90
30250;DHT22;17064;47.974;13.826;2023-09-12T23:43:45;18.20;99.90
30250;DHT22;17064;47.974;13.826;2023-09-12T23:48:45;18.20;99.90
30250;DHT22;17064;47.974;13.826;2023-09-12T23:53:46;18.20;99.90
30250;DHT22;17064;47.974;13.826;2023-09-12T23:58:47;18.20;99.90
